Trigger — WDF7822 — position and weather

sailwx.info

Track history (hours):
 
Tides and Currents Weather Stations Pressure Air Temp Water Temp Dewpoint Dewpoint Depression Visibility Wind Speed Wind Dir Waves Ship Positions

Trigger

Owner: Harley Marine Services, INC, Seattle, WA. More information available from US FCC via Universal Licensing System.

Last reported at 2018-Feb-23 23:00 UTC. Time now 2018-Feb-24 00:39 UTC.
Position N 29°37' W 095°01'.

Length 31 m; draft 3.2 m.

Type: Towing. MMSI: 367488490.

Date/timePositionNaut miles runAvg speedWind from/ knotsBaromVisibWave heightAir tempDewpointWater temp
2018-Feb-23 23:00N 29°37' W 095°01'0 0.0
2018-Feb-23 22:30N 29°37' W 095°01'0 0.0
2018-Feb-23 22:00N 29°37' W 095°01'0 0.0
2018-Feb-23 21:30N 29°37' W 095°01'0 0.0
2018-Feb-23 21:00N 29°37' W 095°01'0 0.0
2018-Feb-23 20:30N 29°37' W 095°01'0 0.0
2018-Feb-23 20:00N 29°37' W 095°01'0 0.0
2018-Feb-23 19:30N 29°37' W 095°01'0 0.0
2018-Feb-23 19:00N 29°37' W 095°01'0 0.0
2018-Feb-23 18:30N 29°37' W 095°01'0 0.0
2018-Feb-23 18:00N 29°37' W 095°01'0 0.0
2018-Feb-23 17:30N 29°37' W 095°01'0 0.0
2018-Feb-23 16:59N 29°37' W 095°01'1 2.6
2018-Feb-23 16:30N 29°37' W 094°60'2 4.2
2018-Feb-23 16:00N 29°38' W 094°58'4 7.0
2018-Feb-23 15:30N 29°41' W 094°60'0 0.4
2018-Feb-23 14:52N 29°41' W 095°00'0 0.0
2018-Feb-23 14:30N 29°41' W 095°00'0 0.0
2018-Feb-23 14:00N 29°41' W 095°00'0 0.0
2018-Feb-23 13:30N 29°41' W 095°00'0 0.0
2018-Feb-23 13:00N 29°41' W 095°00'0 0.0
2018-Feb-23 12:29N 29°41' W 095°00'0 0.0
2018-Feb-23 12:00N 29°41' W 095°00'0 0.0
2018-Feb-23 11:29N 29°41' W 095°00'0 0.2
2018-Feb-23 11:00N 29°41' W 095°00'1 2.0
2018-Feb-23 10:30N 29°41' W 094°59'4 7.7
2018-Feb-23 09:58N 29°44' W 095°03'7 0.4
2018-Feb-22 15:06N 29°45' W 095°11'1 1.5
2018-Feb-22 14:39N 29°45' W 095°10'1 2.8
2018-Feb-22 14:19N 29°44' W 095°09'10 0.4
2018-Feb-21 14:35N 29°40' W 094°58'1 9.0
2018-Feb-21 14:30N 29°39' W 094°58'3 5.5
2018-Feb-21 14:00N 29°37' W 094°60'0 0.9
2018-Feb-21 13:30N 29°37' W 095°00'0 0.0
2018-Feb-21 13:00N 29°37' W 095°00'0 0.0
2018-Feb-21 12:30N 29°37' W 095°00'0 0.0
2018-Feb-21 12:00N 29°37' W 095°00'0 0.0
2018-Feb-21 11:30N 29°37' W 095°00'0 0.1
2018-Feb-21 11:00N 29°37' W 095°00'0 0.0
2018-Feb-21 10:30N 29°37' W 095°00'0 0.0
2018-Feb-21 10:00N 29°37' W 095°00'0 0.0
2018-Feb-21 09:30N 29°37' W 095°00'0 0.0
2018-Feb-21 08:59N 29°37' W 095°00'0 0.0
2018-Feb-21 08:30N 29°37' W 095°00'0 0.0
2018-Feb-21 08:00N 29°37' W 095°00'0 0.0
2018-Feb-21 07:30N 29°37' W 095°00'0 0.0
2018-Feb-21 07:00N 29°37' W 095°00'0 0.0
2018-Feb-21 06:30N 29°37' W 095°00'0 0.0
2018-Feb-21 06:00N 29°37' W 095°00'0 0.0
2018-Feb-21 05:30N 29°37' W 095°00'0 0.0
2018-Feb-21 05:00N 29°37' W 095°00'0 0.0
2018-Feb-21 04:30N 29°37' W 095°00'0 0.0
2018-Feb-21 04:00N 29°37' W 095°00'0 0.0
2018-Feb-21 03:30N 29°37' W 095°00'0 0.0
2018-Feb-21 03:00N 29°37' W 095°00'0 0.0
2018-Feb-21 02:30N 29°37' W 095°00'0 0.0
2018-Feb-21 02:00N 29°37' W 095°00'0 0.0
2018-Feb-21 01:30N 29°37' W 095°00'0 0.0
2018-Feb-21 01:00N 29°37' W 095°00'0 0.0
2018-Feb-21 00:30N 29°37' W 095°00'0 0.0
2018-Feb-21 00:00N 29°37' W 095°00'0 0.0
2018-Feb-20 23:30N 29°37' W 095°00'0 0.0
2018-Feb-20 23:00N 29°37' W 095°00'0 0.0
2018-Feb-20 22:30N 29°37' W 095°00'0 0.0
2018-Feb-20 22:00N 29°37' W 095°00'0 0.0
2018-Feb-20 21:30N 29°37' W 095°00'1 2.7
2018-Feb-20 21:00N 29°37' W 094°59'3 5.3
2018-Feb-20 20:30N 29°39' W 094°58'4 7.6
2018-Feb-20 20:00N 29°42' W 095°01'0 0.0
2018-Feb-20 09:54N 29°42' W 095°01'6 7.5
2018-Feb-20 09:07N 29°37' W 094°58'2 3.9
2018-Feb-20 08:43N 29°37' W 094°59'1 3.6
2018-Feb-20 08:28N 29°37' W 095°00'0 0.0
2018-Feb-20 08:00N 29°37' W 095°00'0 0.0
2018-Feb-20 07:30N 29°37' W 095°00'0 0.0
2018-Feb-20 07:00N 29°37' W 095°00'0 0.0
2018-Feb-20 06:30N 29°37' W 095°00'0 0.0
2018-Feb-20 06:00N 29°37' W 095°00'0 0.0
2018-Feb-20 05:30N 29°37' W 095°00'0 0.0
2018-Feb-20 05:00N 29°37' W 095°00'0 0.0
2018-Feb-20 04:30N 29°37' W 095°00'0 0.0
2018-Feb-20 04:00N 29°37' W 095°00'0 0.0
2018-Feb-20 03:30N 29°37' W 095°00'0 0.0
2018-Feb-20 03:00N 29°37' W 095°00'0 0.0
2018-Feb-20 02:30N 29°37' W 095°00'0 0.0
2018-Feb-20 02:00N 29°37' W 095°00'0 0.0
2018-Feb-20 01:30N 29°37' W 095°00'0 0.0
2018-Feb-20 01:00N 29°37' W 095°00'0 0.0
2018-Feb-20 00:30N 29°37' W 095°00'1 1.6
2018-Feb-20 00:00N 29°37' W 095°01'0 0.2
2018-Feb-19 23:30N 29°37' W 095°01'0 0.0
2018-Feb-19 23:00N 29°37' W 095°01'0 0.3
2018-Feb-19 22:30N 29°37' W 095°01'1 2.6
2018-Feb-19 22:00N 29°37' W 094°60'2 4.5
2018-Feb-19 21:28N 29°39' W 094°58'4 8.0
2018-Feb-19 20:59N 29°42' W 095°00'3 6.0
2018-Feb-19 20:29N 29°44' W 095°03'4 0.6
2018-Feb-19 13:51N 29°47' W 095°06'0 0.0
2018-Feb-19 08:36N 29°47' W 095°06'0 0.0
2018-Feb-19 08:24N 29°47' W 095°06'0 0.0
2018-Feb-19 08:00N 29°47' W 095°06'0 0.0
2018-Feb-19 07:20N 29°47' W 095°06'0 0.0
2018-Feb-19 05:57N 29°47' W 095°06'0 0.0
2018-Feb-19 05:30N 29°47' W 095°06'  
2018-Feb-16 07:02N 29°47' W 095°06'0 0.0
2018-Feb-16 05:52N 29°47' W 095°06'0 0.0
2018-Feb-15 17:12N 29°47' W 095°06'0 0.0
2018-Feb-15 10:27N 29°47' W 095°06'0 0.0
2018-Feb-15 09:56N 29°47' W 095°06'0 0.0
2018-Feb-15 09:03N 29°47' W 095°06'0 0.1
2018-Feb-15 09:00N 29°47' W 095°06'0 0.0
2018-Feb-15 08:30N 29°47' W 095°06'0 0.0
2018-Feb-15 07:57N 29°47' W 095°06'0 0.0
2018-Feb-15 07:27N 29°47' W 095°06'0 0.0
2018-Feb-15 06:48N 29°47' W 095°06'0 0.0
2018-Feb-15 06:30N 29°47' W 095°06'0 0.0
2018-Feb-15 06:00N 29°47' W 095°06'0 0.0
2018-Feb-15 05:22N 29°47' W 095°06'0 0.0
2018-Feb-15 04:49N 29°47' W 095°06'0 0.0
2018-Feb-15 04:19N 29°47' W 095°06'3 0.2
2018-Feb-14 13:41N 29°44' W 095°07'1 7.8
2018-Feb-14 13:29N 29°45' W 095°06'  
Track history (hours):
 
Tides and Currents Weather Stations Pressure Air Temp Water Temp Dewpoint Dewpoint Depression Visibility Wind Speed Wind Dir Waves Ship Positions

Trigger

Owner: Harley Marine Services, INC, Seattle, WA. More information available from US FCC via Universal Licensing System.

Last reported at 2018-Feb-23 23:00 UTC. Time now 2018-Feb-24 00:39 UTC.
Position N 29°37' W 095°01'.

Length 31 m; draft 3.2 m.

Type: Towing. MMSI: 367488490.

Date/timePositionNaut miles runAvg speedWind from/ knotsBaromVisibWave heightAir tempDewpointWater temp
2018-Feb-23 23:00N 29°37' W 095°01'0 0.0
2018-Feb-23 22:30N 29°37' W 095°01'0 0.0
2018-Feb-23 22:00N 29°37' W 095°01'0 0.0
2018-Feb-23 21:30N 29°37' W 095°01'0 0.0
2018-Feb-23 21:00N 29°37' W 095°01'0 0.0
2018-Feb-23 20:30N 29°37' W 095°01'0 0.0
2018-Feb-23 20:00N 29°37' W 095°01'0 0.0
2018-Feb-23 19:30N 29°37' W 095°01'0 0.0
2018-Feb-23 19:00N 29°37' W 095°01'0 0.0
2018-Feb-23 18:30N 29°37' W 095°01'0 0.0
2018-Feb-23 18:00N 29°37' W 095°01'0 0.0
2018-Feb-23 17:30N 29°37' W 095°01'0 0.0
2018-Feb-23 16:59N 29°37' W 095°01'1 2.6
2018-Feb-23 16:30N 29°37' W 094°60'2 4.2
2018-Feb-23 16:00N 29°38' W 094°58'4 7.0
2018-Feb-23 15:30N 29°41' W 094°60'0 0.4
2018-Feb-23 14:52N 29°41' W 095°00'0 0.0
2018-Feb-23 14:30N 29°41' W 095°00'0 0.0
2018-Feb-23 14:00N 29°41' W 095°00'0 0.0
2018-Feb-23 13:30N 29°41' W 095°00'0 0.0
2018-Feb-23 13:00N 29°41' W 095°00'0 0.0
2018-Feb-23 12:29N 29°41' W 095°00'0 0.0
2018-Feb-23 12:00N 29°41' W 095°00'0 0.0
2018-Feb-23 11:29N 29°41' W 095°00'0 0.2
2018-Feb-23 11:00N 29°41' W 095°00'1 2.0
2018-Feb-23 10:30N 29°41' W 094°59'4 7.7
2018-Feb-23 09:58N 29°44' W 095°03'7 0.4
2018-Feb-22 15:06N 29°45' W 095°11'1 1.5
2018-Feb-22 14:39N 29°45' W 095°10'1 2.8
2018-Feb-22 14:19N 29°44' W 095°09'10 0.4
2018-Feb-21 14:35N 29°40' W 094°58'1 9.0
2018-Feb-21 14:30N 29°39' W 094°58'3 5.5
2018-Feb-21 14:00N 29°37' W 094°60'0 0.9
2018-Feb-21 13:30N 29°37' W 095°00'0 0.0
2018-Feb-21 13:00N 29°37' W 095°00'0 0.0
2018-Feb-21 12:30N 29°37' W 095°00'0 0.0
2018-Feb-21 12:00N 29°37' W 095°00'0 0.0
2018-Feb-21 11:30N 29°37' W 095°00'0 0.1
2018-Feb-21 11:00N 29°37' W 095°00'0 0.0
2018-Feb-21 10:30N 29°37' W 095°00'0 0.0
2018-Feb-21 10:00N 29°37' W 095°00'0 0.0
2018-Feb-21 09:30N 29°37' W 095°00'0 0.0
2018-Feb-21 08:59N 29°37' W 095°00'0 0.0
2018-Feb-21 08:30N 29°37' W 095°00'0 0.0
2018-Feb-21 08:00N 29°37' W 095°00'0 0.0
2018-Feb-21 07:30N 29°37' W 095°00'0 0.0
2018-Feb-21 07:00N 29°37' W 095°00'0 0.0
2018-Feb-21 06:30N 29°37' W 095°00'0 0.0
2018-Feb-21 06:00N 29°37' W 095°00'0 0.0
2018-Feb-21 05:30N 29°37' W 095°00'0 0.0
2018-Feb-21 05:00N 29°37' W 095°00'0 0.0
2018-Feb-21 04:30N 29°37' W 095°00'0 0.0
2018-Feb-21 04:00N 29°37' W 095°00'0 0.0
2018-Feb-21 03:30N 29°37' W 095°00'0 0.0
2018-Feb-21 03:00N 29°37' W 095°00'0 0.0
2018-Feb-21 02:30N 29°37' W 095°00'0 0.0
2018-Feb-21 02:00N 29°37' W 095°00'0 0.0
2018-Feb-21 01:30N 29°37' W 095°00'0 0.0
2018-Feb-21 01:00N 29°37' W 095°00'0 0.0
2018-Feb-21 00:30N 29°37' W 095°00'0 0.0
2018-Feb-21 00:00N 29°37' W 095°00'0 0.0
2018-Feb-20 23:30N 29°37' W 095°00'0 0.0
2018-Feb-20 23:00N 29°37' W 095°00'0 0.0
2018-Feb-20 22:30N 29°37' W 095°00'0 0.0
2018-Feb-20 22:00N 29°37' W 095°00'0 0.0
2018-Feb-20 21:30N 29°37' W 095°00'1 2.7
2018-Feb-20 21:00N 29°37' W 094°59'3 5.3
2018-Feb-20 20:30N 29°39' W 094°58'4 7.6
2018-Feb-20 20:00N 29°42' W 095°01'0 0.0
2018-Feb-20 09:54N 29°42' W 095°01'6 7.5
2018-Feb-20 09:07N 29°37' W 094°58'2 3.9
2018-Feb-20 08:43N 29°37' W 094°59'1 3.6
2018-Feb-20 08:28N 29°37' W 095°00'0 0.0
2018-Feb-20 08:00N 29°37' W 095°00'0 0.0
2018-Feb-20 07:30N 29°37' W 095°00'0 0.0
2018-Feb-20 07:00N 29°37' W 095°00'0 0.0
2018-Feb-20 06:30N 29°37' W 095°00'0 0.0
2018-Feb-20 06:00N 29°37' W 095°00'0 0.0
2018-Feb-20 05:30N 29°37' W 095°00'0 0.0
2018-Feb-20 05:00N 29°37' W 095°00'0 0.0
2018-Feb-20 04:30N 29°37' W 095°00'0 0.0
2018-Feb-20 04:00N 29°37' W 095°00'0 0.0
2018-Feb-20 03:30N 29°37' W 095°00'0 0.0
2018-Feb-20 03:00N 29°37' W 095°00'0 0.0
2018-Feb-20 02:30N 29°37' W 095°00'0 0.0
2018-Feb-20 02:00N 29°37' W 095°00'0 0.0
2018-Feb-20 01:30N 29°37' W 095°00'0 0.0
2018-Feb-20 01:00N 29°37' W 095°00'0 0.0
2018-Feb-20 00:30N 29°37' W 095°00'1 1.6
2018-Feb-20 00:00N 29°37' W 095°01'0 0.2
2018-Feb-19 23:30N 29°37' W 095°01'0 0.0
2018-Feb-19 23:00N 29°37' W 095°01'0 0.3
2018-Feb-19 22:30N 29°37' W 095°01'1 2.6
2018-Feb-19 22:00N 29°37' W 094°60'2 4.5
2018-Feb-19 21:28N 29°39' W 094°58'4 8.0
2018-Feb-19 20:59N 29°42' W 095°00'3 6.0
2018-Feb-19 20:29N 29°44' W 095°03'4 0.6
2018-Feb-19 13:51N 29°47' W 095°06'0 0.0
2018-Feb-19 08:36N 29°47' W 095°06'0 0.0
2018-Feb-19 08:24N 29°47' W 095°06'0 0.0
2018-Feb-19 08:00N 29°47' W 095°06'0 0.0
2018-Feb-19 07:20N 29°47' W 095°06'0 0.0
2018-Feb-19 05:57N 29°47' W 095°06'0 0.0
2018-Feb-19 05:30N 29°47' W 095°06'  
2018-Feb-16 07:02N 29°47' W 095°06'0 0.0
2018-Feb-16 05:52N 29°47' W 095°06'0 0.0
2018-Feb-15 17:12N 29°47' W 095°06'0 0.0
2018-Feb-15 10:27N 29°47' W 095°06'0 0.0
2018-Feb-15 09:56N 29°47' W 095°06'0 0.0
2018-Feb-15 09:03N 29°47' W 095°06'0 0.1
2018-Feb-15 09:00N 29°47' W 095°06'0 0.0
2018-Feb-15 08:30N 29°47' W 095°06'0 0.0
2018-Feb-15 07:57N 29°47' W 095°06'0 0.0
2018-Feb-15 07:27N 29°47' W 095°06'0 0.0
2018-Feb-15 06:48N 29°47' W 095°06'0 0.0
2018-Feb-15 06:30N 29°47' W 095°06'0 0.0
2018-Feb-15 06:00N 29°47' W 095°06'0 0.0
2018-Feb-15 05:22N 29°47' W 095°06'0 0.0
2018-Feb-15 04:49N 29°47' W 095°06'0 0.0
2018-Feb-15 04:19N 29°47' W 095°06'3 0.2
2018-Feb-14 13:41N 29°44' W 095°07'1 7.8
2018-Feb-14 13:29N 29°45' W 095°06'  

Dump ship's entire track history